Time;durP1;ratioP1;P1;durP2;ratioP2;P2;SDS_P1;SDS_P2;PMS_P1;PMS_P2;Temp;Humidity;BMP_temperature;BMP_pressure;BME280_temperature;BME280_humidity;BME280_pressure;Samples;Min_cycle;Max_cycle;Signal;HPM_P1;HPM_P2
2023/07/19 00:00:48;;;;;;;5.60;3.80;;;18.60;99.90;;;;;;4972846;28;20587;-66
2023/07/19 00:03:15;;;;;;;5.03;3.63;;;18.60;99.90;;;;;;4973178;28;20918;-66
2023/07/19 00:05:42;;;;;;;4.40;3.43;;;18.50;99.90;;;;;;4973352;28;20906;-66
2023/07/19 00:08:09;;;;;;;3.77;3.13;;;18.50;99.90;;;;;;4987795;28;20982;-66
2023/07/19 00:10:37;;;;;;;5.10;3.30;;;18.50;99.90;;;;;;4975245;28;20905;-66
2023/07/19 00:13:04;;;;;;;3.50;3.20;;;18.50;99.90;;;;;;4992144;28;20548;-66
2023/07/19 00:15:31;;;;;;;4.10;3.10;;;18.40;99.90;;;;;;4992166;28;20542;-66
2023/07/19 00:17:58;;;;;;;3.30;3.00;;;18.40;99.90;;;;;;5011254;28;20460;-66
2023/07/19 00:20:25;;;;;;;5.03;3.53;;;18.30;99.90;;;;;;5000997;28;20544;-66
2023/07/19 00:22:52;;;;;;;4.47;3.50;;;18.30;99.90;;;;;;5008352;28;20985;-66
2023/07/19 00:25:19;;;;;;;5.10;4.03;;;18.30;99.90;;;;;;5006684;28;20900;-66
2023/07/19 00:27:48;;;;;;;4.13;3.83;;;18.30;99.90;;;;;;5011001;28;20868;-66
2023/07/19 00:30:15;;;;;;;3.17;2.97;;;18.30;99.90;;;;;;5011570;28;20576;-65
2023/07/19 00:32:42;;;;;;;5.63;3.60;;;18.30;99.90;;;;;;5011586;28;20472;-66
2023/07/19 00:35:10;;;;;;;4.57;4.10;;;18.30;99.90;;;;;;5011418;28;20572;-66
2023/07/19 00:37:37;;;;;;;2.93;2.70;;;18.30;99.90;;;;;;5011280;28;20898;-66
2023/07/19 00:40:04;;;;;;;6.13;3.60;;;18.30;99.90;;;;;;5011233;28;20807;-66
2023/07/19 00:42:31;;;;;;;4.27;3.87;;;18.30;99.90;;;;;;4991605;28;20494;-67
2023/07/19 00:44:59;;;;;;;3.77;3.47;;;18.30;99.90;;;;;;4991359;28;20455;-66
2023/07/19 00:47:27;;;;;;;3.80;3.20;;;18.30;99.90;;;;;;4991483;28;20537;-66
2023/07/19 00:49:54;;;;;;;3.67;3.23;;;18.30;99.90;;;;;;4991653;28;20477;-66
2023/07/19 00:52:21;;;;;;;3.50;3.20;;;18.30;99.90;;;;;;4990791;28;21037;-66
2023/07/19 00:54:48;;;;;;;3.80;3.40;;;18.20;99.90;;;;;;4991519;28;20930;-66
2023/07/19 00:57:15;;;;;;;3.63;3.33;;;18.20;99.90;;;;;;4988573;28;20519;-65
2023/07/19 00:59:42;;;;;;;5.73;3.27;;;18.20;99.90;;;;;;4972196;28;20521;-65
2023/07/19 01:02:10;;;;;;;3.40;3.03;;;18.20;99.90;;;;;;4971178;28;20584;-66
2023/07/19 01:04:37;;;;;;;3.60;3.07;;;18.20;99.90;;;;;;4971820;28;20541;-66
2023/07/19 01:07:05;;;;;;;2.90;2.70;;;18.20;99.90;;;;;;4971798;28;20506;-66
2023/07/19 01:19:39;;;;;;;3.93;3.60;;;18.00;99.90;;;;;;5011096;28;20405;-66
2023/07/19 01:22:07;;;;;;;3.73;3.43;;;17.90;99.90;;;;;;5010939;28;20492;-66
2023/07/19 01:24:35;;;;;;;3.87;3.10;;;17.90;99.90;;;;;;5011125;28;20454;-66
2023/07/19 01:27:03;;;;;;;4.60;4.00;;;17.80;99.90;;;;;;5010776;28;20485;-66
2023/07/19 01:29:30;;;;;;;6.13;4.00;;;17.80;99.90;;;;;;5010815;28;20462;-66
2023/07/19 01:31:56;;;;;;;4.77;4.37;;;17.70;99.90;;;;;;5010729;28;20481;-65
2023/07/19 01:34:23;;;;;;;4.33;3.50;;;17.70;99.90;;;;;;5010732;28;20964;-66
2023/07/19 01:36:50;;;;;;;4.60;3.30;;;17.70;99.90;;;;;;5010786;28;20463;-66
2023/07/19 01:39:17;;;;;;;5.00;3.60;;;17.60;99.90;;;;;;5010959;28;20460;-66
2023/07/19 01:41:45;;;;;;;3.80;3.50;;;17.60;99.90;;;;;;5010711;28;20485;-66
2023/07/19 01:44:12;;;;;;;4.17;3.87;;;17.50;99.90;;;;;;5010839;28;20459;-66
2023/07/19 01:46:39;;;;;;;3.90;3.50;;;17.50;99.90;;;;;;5010355;28;20461;-65
2023/07/19 01:49:06;;;;;;;4.00;3.67;;;17.40;99.90;;;;;;5010635;28;20461;-66
2023/07/19 01:51:33;;;;;;;4.57;3.20;;;17.40;99.90;;;;;;5010108;28;20442;-65
2023/07/19 01:54:00;;;;;;;6.10;4.07;;;17.40;99.90;;;;;;5010608;28;20976;-66
2023/07/19 01:56:26;;;;;;;8.10;3.60;;;17.30;99.90;;;;;;5010460;28;20456;-66
2023/07/19 01:58:55;;;;;;;3.60;3.30;;;17.30;99.90;;;;;;5014328;28;21016;-65
2023/07/19 02:01:21;;;;;;;3.93;3.53;;;17.20;99.90;;;;;;5014552;28;20493;-66
2023/07/19 02:03:48;;;;;;;4.00;3.30;;;17.20;99.90;;;;;;5014445;28;20472;-66
2023/07/19 02:06:15;;;;;;;3.53;3.30;;;17.20;99.90;;;;;;5014010;28;20456;-66
2023/07/19 02:08:42;;;;;;;3.70;3.40;;;17.10;99.90;;;;;;5014387;28;20514;-66
2023/07/19 02:11:09;;;;;;;4.50;3.87;;;17.10;99.90;;;;;;5014049;28;20536;-66
2023/07/19 02:13:35;;;;;;;4.23;3.83;;;17.00;99.90;;;;;;5014048;28;20919;-65
2023/07/19 02:16:04;;;;;;;4.40;2.70;;;16.90;99.90;;;;;;5013865;28;20883;-66
2023/07/19 02:18:31;;;;;;;4.70;3.40;;;16.90;99.90;;;;;;5014139;28;20834;-66
2023/07/19 02:20:58;;;;;;;3.93;3.63;;;16.90;99.90;;;;;;5013887;28;20456;-66
2023/07/19 02:23:25;;;;;;;4.57;3.90;;;16.90;99.90;;;;;;5013825;28;20582;-66
2023/07/19 02:25:52;;;;;;;4.60;4.30;;;16.80;99.90;;;;;;5013509;28;20950;-66
2023/07/19 02:28:19;;;;;;;4.50;3.33;;;16.80;99.90;;;;;;5013884;28;20453;-66
2023/07/19 02:30:46;;;;;;;4.70;4.30;;;16.80;99.90;;;;;;5001730;28;20464;-66
2023/07/19 02:33:15;;;;;;;3.90;3.60;;;16.80;99.90;;;;;;5013667;28;20469;-65
2023/07/19 02:35:43;;;;;;;3.80;3.50;;;16.80;99.90;;;;;;5013643;28;20452;-66
2023/07/19 02:38:10;;;;;;;4.73;4.33;;;16.70;99.90;;;;;;5013461;28;20451;-65
2023/07/19 02:40:37;;;;;;;3.93;3.73;;;16.70;99.90;;;;;;5011887;28;20547;-66
2023/07/19 02:43:04;;;;;;;4.20;3.53;;;16.70;99.90;;;;;;5013462;28;21098;-65
2023/07/19 02:45:33;;;;;;;4.43;4.03;;;16.70;99.90;;;;;;5003024;28;20460;-66
2023/07/19 02:48:00;;;;;;;4.27;3.97;;;16.60;99.90;;;;;;5009035;28;20919;-66
2023/07/19 02:50:28;;;;;;;4.43;4.03;;;16.60;99.90;;;;;;5013448;28;20455;-66
2023/07/19 02:52:55;;;;;;;3.70;3.37;;;16.50;99.90;;;;;;5013650;28;20555;-66
2023/07/19 02:55:22;;;;;;;5.90;3.90;;;16.50;99.90;;;;;;5013399;28;20455;-66
2023/07/19 02:57:49;;;;;;;4.10;3.23;;;16.50;99.90;;;;;;5012926;28;20966;-66
2023/07/19 03:00:16;;;;;;;3.60;3.30;;;16.40;99.90;;;;;;5013346;28;20448;-66
2023/07/19 03:02:43;;;;;;;3.47;3.17;;;16.40;99.90;;;;;;5009353;28;20495;-66
2023/07/19 03:05:10;;;;;;;7.60;3.43;;;16.40;99.90;;;;;;5013246;28;20455;-66
2023/07/19 03:07:38;;;;;;;4.10;3.70;;;16.40;99.90;;;;;;5011657;28;20463;-66
2023/07/19 03:10:06;;;;;;;4.37;3.80;;;16.40;99.90;;;;;;5012570;28;20453;-66
2023/07/19 03:12:33;;;;;;;3.80;3.47;;;16.30;99.90;;;;;;5012695;28;20833;-66
2023/07/19 03:14:59;;;;;;;5.43;2.93;;;16.30;99.90;;;;;;5013234;28;20454;-65
2023/07/19 03:17:26;;;;;;;9.93;4.00;;;16.30;99.90;;;;;;5012506;28;20463;-66
2023/07/19 03:19:53;;;;;;;4.23;3.73;;;16.20;99.90;;;;;;5012915;28;20456;-66
2023/07/19 03:22:20;;;;;;;4.57;4.17;;;16.20;99.90;;;;;;5012639;28;20522;-66
2023/07/19 03:24:48;;;;;;;3.80;3.27;;;16.20;99.90;;;;;;5012657;28;20890;-66
2023/07/19 03:27:15;;;;;;;6.33;3.30;;;16.20;99.90;;;;;;5012562;28;20502;-65
2023/07/19 03:29:42;;;;;;;4.10;3.70;;;16.10;99.90;;;;;;5004739;28;20460;-66
2023/07/19 03:32:09;;;;;;;4.90;3.80;;;16.20;99.90;;;;;;5012635;28;20554;-67
2023/07/19 03:34:36;;;;;;;4.43;3.60;;;16.10;99.90;;;;;;5012752;28;20451;-66
2023/07/19 03:37:03;;;;;;;4.50;3.40;;;16.10;99.90;;;;;;5012254;28;20456;-65
2023/07/19 03:39:30;;;;;;;6.90;3.90;;;16.10;99.90;;;;;;5012310;28;20538;-66
2023/07/19 03:41:58;;;;;;;6.93;3.93;;;16.00;99.90;;;;;;5012172;28;20497;-65
2023/07/19 03:44:26;;;;;;;6.50;4.20;;;16.10;99.90;;;;;;5012632;28;21039;-66
2023/07/19 03:46:52;;;;;;;7.43;5.17;;;16.00;99.90;;;;;;5012134;28;20447;-66
2023/07/19 03:49:19;;;;;;;8.33;4.50;;;16.00;99.90;;;;;;5012265;28;20505;-65
2023/07/19 03:51:46;;;;;;;4.63;3.67;;;16.00;99.90;;;;;;5012257;28;20463;-66
2023/07/19 03:54:13;;;;;;;5.23;4.33;;;16.00;99.90;;;;;;5011954;28;20811;-65
2023/07/19 03:56:40;;;;;;;4.93;4.43;;;16.00;99.90;;;;;;5011948;28;20540;-65
2023/07/19 03:59:08;;;;;;;3.73;3.33;;;16.00;99.90;;;;;;5012315;28;20899;-66
2023/07/19 04:01:36;;;;;;;6.00;3.77;;;16.00;99.90;;;;;;5011872;28;20452;-67
2023/07/19 04:04:03;;;;;;;4.20;3.80;;;16.00;99.90;;;;;;5011956;28;20462;-66
2023/07/19 04:06:30;;;;;;;3.97;3.57;;;16.00;99.90;;;;;;5011899;28;20458;-65
2023/07/19 04:08:57;;;;;;;5.10;3.50;;;16.00;99.90;;;;;;5012153;28;20821;-65
2023/07/19 04:11:24;;;;;;;4.50;3.73;;;16.00;99.90;;;;;;5012016;28;20483;-65
2023/07/19 04:13:51;;;;;;;3.90;3.50;;;16.00;99.90;;;;;;5011952;28;20467;-66
2023/07/19 04:16:19;;;;;;;4.80;3.63;;;16.00;99.90;;;;;;5011619;28;20865;-65
2023/07/19 04:18:46;;;;;;;4.00;3.70;;;16.10;99.90;;;;;;5004011;28;20467;-65
2023/07/19 04:21:13;;;;;;;4.00;3.70;;;16.10;99.90;;;;;;5002124;28;20475;-65
2023/07/19 04:23:40;;;;;;;4.20;3.80;;;16.10;99.90;;;;;;5009558;28;20488;-67
2023/07/19 04:26:07;;;;;;;4.47;3.53;;;16.10;99.90;;;;;;5011430;28;20451;-66
2023/07/19 04:28:33;;;;;;;4.40;4.07;;;16.20;99.90;;;;;;5011844;28;20462;-65
2023/07/19 04:31:00;;;;;;;5.27;3.33;;;16.20;99.90;;;;;;5007756;28;20451;-66
2023/07/19 04:33:28;;;;;;;8.27;4.13;;;16.20;99.90;;;;;;5007711;28;20478;-66
2023/07/19 04:35:55;;;;;;;4.40;4.07;;;16.20;99.90;;;;;;4972418;28;20862;-65
2023/07/19 04:38:22;;;;;;;6.47;4.40;;;16.20;99.90;;;;;;4972550;28;20457;-66
2023/07/19 04:40:49;;;;;;;4.17;3.77;;;16.20;99.90;;;;;;4972401;28;20476;-66
2023/07/19 04:43:16;;;;;;;5.03;3.83;;;16.20;99.90;;;;;;4972206;28;20507;-66
2023/07/19 04:45:43;;;;;;;5.10;4.20;;;16.20;99.90;;;;;;4972203;28;21135;-65
2023/07/19 04:48:10;;;;;;;3.70;3.40;;;16.30;99.90;;;;;;4972108;28;21137;-66
2023/07/19 04:50:39;;;;;;;4.80;4.20;;;16.30;99.90;;;;;;4972482;28;20458;-66
2023/07/19 04:53:05;;;;;;;5.13;3.87;;;16.30;99.90;;;;;;4972165;28;20517;-66
2023/07/19 04:55:33;;;;;;;3.83;3.30;;;16.30;99.90;;;;;;4971914;28;20454;-65
2023/07/19 04:57:59;;;;;;;4.47;3.80;;;16.40;99.90;;;;;;4997425;28;20503;-66
2023/07/19 05:00:27;;;;;;;4.50;4.10;;;16.40;99.90;;;;;;5011275;28;20453;-66
2023/07/19 05:02:54;;;;;;;3.80;3.50;;;16.40;99.90;;;;;;5011142;28;20550;-66
2023/07/19 05:05:21;;;;;;;3.93;3.53;;;16.50;99.90;;;;;;5011294;28;20897;-66
2023/07/19 05:07:49;;;;;;;4.17;3.83;;;16.50;99.90;;;;;;5010824;28;20538;-66
2023/07/19 05:10:16;;;;;;;4.73;3.70;;;16.60;99.90;;;;;;5010859;28;20976;-66
2023/07/19 05:12:43;;;;;;;4.60;4.10;;;16.70;99.90;;;;;;5011112;28;20558;-66
2023/07/19 05:15:10;;;;;;;6.00;3.90;;;16.80;99.90;;;;;;5011025;28;20461;-65
2023/07/19 05:17:37;;;;;;;7.30;4.13;;;16.90;99.90;;;;;;5010867;28;20496;-66
2023/07/19 05:20:05;;;;;;;4.50;3.80;;;16.90;99.90;;;;;;5011036;28;20453;-65
2023/07/19 05:22:32;;;;;;;18.83;4.80;;;17.00;99.90;;;;;;5010816;28;20496;-65
2023/07/19 05:25:00;;;;;;;4.60;4.13;;;17.00;99.90;;;;;;5010951;28;20458;-66
2023/07/19 05:27:27;;;;;;;6.60;4.23;;;17.10;99.90;;;;;;5010947;28;20453;-66
2023/07/19 05:29:54;;;;;;;3.90;3.60;;;17.20;99.90;;;;;;5011044;28;20551;-65
2023/07/19 05:32:21;;;;;;;3.63;3.40;;;17.30;99.90;;;;;;5013326;28;20484;-66
2023/07/19 05:34:48;;;;;;;4.50;3.20;;;17.40;99.90;;;;;;5014822;28;20462;-66
2023/07/19 05:37:14;;;;;;;4.33;3.90;;;17.50;99.90;;;;;;5014183;28;20457;-66
2023/07/19 05:39:41;;;;;;;4.87;4.43;;;17.60;99.90;;;;;;5014862;28;20837;-66
2023/07/19 05:42:10;;;;;;;4.20;3.80;;;17.70;99.90;;;;;;5014535;28;20483;-66
2023/07/19 05:44:37;;;;;;;3.57;2.93;;;17.80;99.90;;;;;;5014550;28;21031;-66
2023/07/19 05:47:04;;;;;;;4.40;4.00;;;17.90;99.90;;;;;;5014482;28;20540;-66
2023/07/19 05:49:31;;;;;;;4.33;4.03;;;18.10;99.90;;;;;;5004400;28;20528;-65
2023/07/19 05:51:57;;;;;;;4.10;3.77;;;18.20;99.90;;;;;;4994241;28;20520;-66
2023/07/19 05:54:24;;;;;;;4.03;3.57;;;18.30;99.90;;;;;;4994550;28;20461;-66
2023/07/19 05:56:51;;;;;;;4.30;4.00;;;18.50;99.90;;;;;;4991871;28;20985;-66
2023/07/19 05:59:19;;;;;;;4.30;3.90;;;18.70;99.90;;;;;;5013118;28;20441;-66
2023/07/19 06:01:46;;;;;;;3.83;3.53;;;18.80;99.90;;;;;;5014345;28;20456;-67
2023/07/19 06:04:13;;;;;;;4.37;4.07;;;19.00;99.90;;;;;;5014260;28;20523;-66
2023/07/19 06:06:40;;;;;;;3.80;3.37;;;19.20;99.90;;;;;;5013412;28;21014;-67
2023/07/19 06:09:08;;;;;;;3.60;3.30;;;19.30;99.90;;;;;;5014353;28;20455;-66
2023/07/19 06:11:35;;;;;;;4.70;3.43;;;19.60;99.90;;;;;;5014234;28;20457;-66
2023/07/19 06:14:02;;;;;;;5.17;4.10;;;19.70;99.90;;;;;;5014271;28;20536;-66
2023/07/19 06:16:30;;;;;;;4.03;3.67;;;19.90;99.90;;;;;;5013515;28;20484;-65
2023/07/19 06:18:57;;;;;;;4.43;3.77;;;20.00;99.90;;;;;;5013975;28;20451;-66
2023/07/19 06:21:25;;;;;;;4.30;3.90;;;20.20;99.90;;;;;;5013880;28;20458;-66
2023/07/19 06:23:52;;;;;;;5.73;3.33;;;20.30;99.90;;;;;;5013689;28;20494;-67
2023/07/19 06:26:19;;;;;;;4.90;4.07;;;20.40;99.90;;;;;;5013405;28;20460;-67
2023/07/19 06:28:45;;;;;;;4.17;3.87;;;20.50;99.90;;;;;;5013874;28;20978;-66
2023/07/19 06:31:12;;;;;;;5.00;4.57;;;20.70;99.90;;;;;;5013897;28;20457;-66
2023/07/19 06:33:40;;;;;;;5.07;4.67;;;20.70;98.90;;;;;;5013741;28;20479;-66
2023/07/19 06:36:07;;;;;;;4.63;4.13;;;20.80;99.10;;;;;;5013547;28;20450;-67
2023/07/19 06:38:36;;;;;;;4.90;3.63;;;20.90;99.50;;;;;;5013623;28;20975;-67
2023/07/19 06:41:03;;;;;;;5.60;3.80;;;21.00;98.60;;;;;;5013042;28;20461;-67
2023/07/19 06:43:30;;;;;;;4.63;4.23;;;21.10;98.60;;;;;;5012964;28;20532;-67
2023/07/19 06:45:57;;;;;;;4.07;3.67;;;21.30;98.60;;;;;;5013495;28;20893;-66
2023/07/19 06:48:24;;;;;;;5.90;4.00;;;21.40;98.20;;;;;;5009536;28;20561;-67
2023/07/19 06:50:53;;;;;;;4.53;4.03;;;21.60;98.00;;;;;;5005140;28;21291;-67
2023/07/19 06:53:19;;;;;;;4.57;4.17;;;21.70;97.60;;;;;;5006871;28;20476;-67
2023/07/19 06:55:46;;;;;;;4.47;4.07;;;21.80;96.90;;;;;;5012984;28;20458;-66
2023/07/19 06:58:13;;;;;;;4.13;3.70;;;22.00;97.30;;;;;;5013215;28;20821;-66
2023/07/19 07:00:41;;;;;;;4.70;3.93;;;22.20;97.20;;;;;;5013273;28;20453;-67
2023/07/19 07:03:08;;;;;;;3.37;3.07;;;22.30;96.90;;;;;;5012827;28;20490;-67
2023/07/19 07:05:35;;;;;;;3.87;3.57;;;22.50;96.40;;;;;;5013280;28;20544;-67
2023/07/19 07:08:03;;;;;;;4.03;3.67;;;22.70;96.30;;;;;;5012812;28;20454;-67
2023/07/19 07:10:30;;;;;;;4.50;3.97;;;22.80;96.20;;;;;;5012889;28;20543;-67
2023/07/19 07:12:57;;;;;;;3.67;3.37;;;23.00;95.80;;;;;;5012795;28;20997;-67
2023/07/19 07:15:24;;;;;;;5.60;4.23;;;23.10;95.50;;;;;;5012930;28;20973;-67
2023/07/19 07:17:51;;;;;;;4.70;4.30;;;23.30;94.60;;;;;;5012573;28;20458;-67
2023/07/19 07:20:18;;;;;;;5.50;4.33;;;23.40;94.30;;;;;;5012648;28;20549;-67
2023/07/19 07:22:44;;;;;;;4.70;3.80;;;23.50;94.70;;;;;;5012468;28;20478;-66
2023/07/19 07:25:13;;;;;;;4.47;4.07;;;23.60;93.50;;;;;;5012086;28;20450;-67
2023/07/19 07:27:39;;;;;;;3.60;3.40;;;23.70;93.60;;;;;;5012268;28;20461;-66
2023/07/19 07:30:08;;;;;;;4.97;4.50;;;23.80;93.70;;;;;;5012105;28;20456;-66
2023/07/19 07:32:35;;;;;;;4.90;4.50;;;23.90;93.40;;;;;;5012402;28;20475;-67
2023/07/19 07:35:06;;;;;;;5.87;4.37;;;23.90;92.60;;;;;;5012301;28;20459;-66
2023/07/19 07:37:33;;;;;;;4.13;3.73;;;24.00;93.20;;;;;;5011805;28;20455;-66
2023/07/19 07:40:00;;;;;;;5.37;4.10;;;24.20;93.20;;;;;;5012467;28;20451;-67
2023/07/19 07:42:28;;;;;;;3.80;3.40;;;24.30;93.10;;;;;;5012190;28;20468;-67
2023/07/19 07:44:55;;;;;;;4.30;4.00;;;24.50;92.10;;;;;;5012600;28;20488;-66
2023/07/19 07:47:22;;;;;;;4.77;3.87;;;24.60;92.10;;;;;;5012162;28;20446;-67
2023/07/19 07:49:49;;;;;;;5.83;3.93;;;24.80;91.40;;;;;;5012446;28;20451;-67
2023/07/19 07:52:16;;;;;;;4.17;3.87;;;24.80;90.80;;;;;;5011756;28;20506;-67
2023/07/19 07:54:44;;;;;;;4.20;3.90;;;25.00;90.60;;;;;;5012256;28;20531;-68
2023/07/19 07:57:11;;;;;;;4.13;3.83;;;25.10;90.00;;;;;;5011730;28;20542;-67
2023/07/19 07:59:39;;;;;;;4.07;3.77;;;25.10;89.60;;;;;;5012483;28;20458;-66
2023/07/19 08:02:06;;;;;;;4.70;4.40;;;25.20;89.20;;;;;;5012319;28;20476;-67
2023/07/19 08:04:34;;;;;;;4.33;3.87;;;25.30;87.60;;;;;;5011915;28;21101;-68
2023/07/19 08:07:01;;;;;;;5.20;4.90;;;25.40;88.20;;;;;;5011646;28;20467;-67
2023/07/19 08:09:28;;;;;;;4.40;4.00;;;25.40;87.00;;;;;;5012070;28;20553;-66
2023/07/19 08:11:55;;;;;;;4.93;4.53;;;25.40;87.50;;;;;;5012206;28;20483;-67
2023/07/19 08:14:22;;;;;;;3.80;3.53;;;25.50;88.90;;;;;;5012136;28;20452;-66
2023/07/19 08:16:53;;;;;;;5.03;4.03;;;25.70;87.50;;;;;;5009824;28;20462;-66
2023/07/19 08:19:20;;;;;;;4.70;4.10;;;25.90;87.30;;;;;;5011149;28;20924;-68
2023/07/19 08:21:46;;;;;;;4.67;4.27;;;26.00;85.10;;;;;;5006866;28;20963;-68
2023/07/19 08:24:13;;;;;;;4.47;4.10;;;26.10;85.60;;;;;;4990833;28;21008;-69
2023/07/19 08:26:40;;;;;;;4.90;3.80;;;26.20;85.00;;;;;;4991205;28;20458;-68
2023/07/19 08:29:07;;;;;;;4.60;4.20;;;26.30;82.80;;;;;;4991363;28;20453;-68
2023/07/19 08:31:35;;;;;;;4.50;4.13;;;26.30;81.20;;;;;;4991345;28;20532;-67
2023/07/19 08:34:03;;;;;;;4.60;4.27;;;26.30;81.10;;;;;;4990984;28;20454;-67
2023/07/19 08:36:30;;;;;;;6.80;3.77;;;26.40;81.70;;;;;;4991042;28;20458;-68
2023/07/19 08:38:57;;;;;;;4.13;3.83;;;26.40;79.60;;;;;;4990774;28;20451;-65
2023/07/19 08:41:24;;;;;;;4.27;3.70;;;26.50;80.90;;;;;;4991533;28;20453;-67
2023/07/19 08:43:51;;;;;;;5.00;3.47;;;26.50;80.30;;;;;;4991150;28;20524;-66
2023/07/19 08:46:18;;;;;;;6.60;4.20;;;26.60;76.80;;;;;;4990862;28;20458;-69
2023/07/19 08:48:48;;;;;;;4.60;4.20;;;26.60;77.20;;;;;;4994644;28;20544;-68
2023/07/19 08:51:17;;;;;;;4.30;3.90;;;26.70;78.30;;;;;;5009822;28;20484;-66
2023/07/19 08:53:44;;;;;;;5.20;3.83;;;26.90;76.70;;;;;;5010006;28;20471;-68
2023/07/19 08:56:12;;;;;;;6.03;3.90;;;27.10;76.10;;;;;;5010197;28;20517;-67
2023/07/19 08:58:40;;;;;;;4.00;3.70;;;27.20;77.30;;;;;;5010497;28;20870;-68
2023/07/19 09:01:07;;;;;;;5.63;5.03;;;27.30;73.50;;;;;;5010189;28;21185;-67
2023/07/19 09:03:34;;;;;;;5.23;3.40;;;27.40;73.10;;;;;;5009996;28;20607;-69
2023/07/19 09:06:02;;;;;;;6.20;4.73;;;27.50;75.10;;;;;;5009621;28;20547;-68
2023/07/19 09:08:37;;;;;;;7.43;4.77;;;27.60;72.70;;;;;;5010509;28;20485;-68
2023/07/19 09:11:05;;;;;;;6.60;4.20;;;27.80;73.30;;;;;;5010461;28;20895;-67
2023/07/19 09:13:33;;;;;;;4.60;4.13;;;27.90;74.10;;;;;;5010017;28;20477;-66
2023/07/19 09:16:02;;;;;;;5.83;4.40;;;28.00;72.10;;;;;;5009783;28;20476;-67
2023/07/19 09:18:35;;;;;;;6.53;4.90;;;28.20;73.00;;;;;;5010549;28;20453;-66
2023/07/19 09:21:03;;;;;;;4.47;4.10;;;28.30;70.60;;;;;;5009491;28;20449;-67
2023/07/19 09:23:36;;;;;;;4.57;4.27;;;28.50;72.50;;;;;;5010261;28;20478;-67
2023/07/19 09:26:04;;;;;;;4.50;4.10;;;28.60;69.70;;;;;;5010024;28;20465;-66
2023/07/19 09:28:33;;;;;;;4.37;4.07;;;28.70;69.60;;;;;;5010593;28;20457;-67
2023/07/19 09:31:02;;;;;;;7.43;4.20;;;28.70;67.70;;;;;;5010436;28;20448;-67
2023/07/19 09:33:29;;;;;;;4.57;4.17;;;28.80;67.30;;;;;;5010118;28;20480;-67
2023/07/19 09:35:57;;;;;;;4.53;3.93;;;28.80;66.60;;;;;;5009533;28;20465;-66
2023/07/19 09:38:25;;;;;;;4.67;4.27;;;28.80;66.60;;;;;;5010400;28;20455;-67
2023/07/19 09:40:54;;;;;;;4.33;4.03;;;28.90;64.70;;;;;;5010490;28;20450;-66
2023/07/19 09:43:21;;;;;;;3.90;3.60;;;28.90;66.00;;;;;;5009874;28;20478;-67
2023/07/19 09:45:50;;;;;;;5.77;3.90;;;28.90;62.40;;;;;;5010322;28;20467;-67
2023/07/19 09:48:17;;;;;;;4.50;4.13;;;28.90;61.50;;;;;;5009961;28;20557;-67
2023/07/19 09:50:47;;;;;;;3.33;3.03;;;28.90;61.30;;;;;;5010384;28;20454;-67
2023/07/19 09:53:14;;;;;;;2.63;2.43;;;28.80;61.60;;;;;;5010051;28;20474;-68
2023/07/19 09:55:41;;;;;;;4.00;3.70;;;28.80;59.00;;;;;;4991199;28;20450;-67
2023/07/19 09:58:13;;;;;;;5.50;3.50;;;28.80;58.60;;;;;;4988391;28;20503;-67
2023/07/19 10:00:41;;;;;;;3.87;3.60;;;28.80;59.40;;;;;;4989788;28;20454;-67
2023/07/19 10:03:08;;;;;;;4.53;3.40;;;28.80;58.20;;;;;;4989830;28;20942;-66
2023/07/19 10:05:35;;;;;;;2.77;2.57;;;28.80;58.60;;;;;;4989757;28;20485;-67
2023/07/19 10:08:04;;;;;;;3.87;3.43;;;28.70;56.50;;;;;;4987533;28;20560;-66
2023/07/19 10:10:37;;;;;;;3.00;2.80;;;28.70;57.20;;;;;;4997474;28;20935;-64
2023/07/19 10:13:04;;;;;;;4.60;4.20;;;28.60;57.00;;;;;;4984863;28;20482;-67
2023/07/19 10:15:32;;;;;;;4.80;3.03;;;28.50;58.30;;;;;;4989813;28;20450;-67
2023/07/19 10:18:00;;;;;;;6.20;3.80;;;28.60;60.00;;;;;;5000584;28;20468;-67
2023/07/19 10:20:30;;;;;;;4.00;3.60;;;28.70;59.70;;;;;;5004438;28;20452;-66
2023/07/19 10:22:58;;;;;;;3.13;2.93;;;28.80;58.60;;;;;;4992880;28;20477;-66
2023/07/19 10:25:28;;;;;;;2.30;2.20;;;28.80;56.60;;;;;;4993134;28;20500;-67
2023/07/19 10:28:00;;;;;;;3.27;2.30;;;28.90;55.30;;;;;;4992443;28;20995;-67
2023/07/19 10:30:47;;;;;;;3.20;3.00;;;28.90;55.80;;;;;;4993283;28;21060;-68
2023/07/19 10:33:15;;;;;;;2.30;2.10;;;29.00;56.70;;;;;;4979159;28;20467;-68
2023/07/19 10:35:42;;;;;;;3.17;2.97;;;29.10;55.10;;;;;;4988793;28;20456;-66
2023/07/19 10:38:14;;;;;;;3.13;2.83;;;29.10;55.80;;;;;;5004616;28;20443;-66
2023/07/19 10:40:41;;;;;;;3.73;3.40;;;29.10;54.80;;;;;;4995493;28;20447;-67
2023/07/19 10:43:08;;;;;;;2.60;2.40;;;29.10;54.50;;;;;;4993277;28;20467;-66
2023/07/19 10:45:36;;;;;;;2.60;2.40;;;29.20;54.80;;;;;;4993402;28;20517;-67
2023/07/19 10:48:05;;;;;;;2.27;2.07;;;29.30;53.30;;;;;;4992962;28;20986;-67
2023/07/19 10:50:32;;;;;;;4.23;2.73;;;29.20;51.00;;;;;;4993077;28;20852;-66
2023/07/19 10:52:59;;;;;;;2.60;2.40;;;29.30;52.50;;;;;;4993157;28;20550;-67
2023/07/19 10:55:28;;;;;;;3.90;2.53;;;29.20;50.80;;;;;;4992800;28;20533;-65
2023/07/19 10:57:55;;;;;;;2.43;2.23;;;29.20;52.20;;;;;;4993007;28;20461;-66
2023/07/19 11:00:22;;;;;;;2.50;2.27;;;29.30;51.10;;;;;;4992986;28;20443;-67
2023/07/19 11:02:49;;;;;;;3.03;2.80;;;29.30;50.60;;;;;;4992901;28;20860;-66
2023/07/19 11:05:17;;;;;;;2.53;2.33;;;29.40;51.30;;;;;;4992876;28;20483;-66
2023/07/19 11:07:44;;;;;;;3.27;2.37;;;29.50;52.40;;;;;;4992728;28;20458;-66
2023/07/19 11:10:11;;;;;;;3.03;2.40;;;29.40;49.80;;;;;;4993143;28;20455;-66
2023/07/19 11:12:38;;;;;;;2.70;2.50;;;29.40;50.60;;;;;;4992636;28;20542;-67
2023/07/19 11:15:09;;;;;;;2.47;2.17;;;29.50;50.70;;;;;;4992788;28;20474;-67
2023/07/19 11:17:36;;;;;;;2.90;2.63;;;29.60;49.50;;;;;;4991850;28;20824;-67
2023/07/19 11:20:05;;;;;;;3.50;2.77;;;29.60;51.30;;;;;;4993040;28;20459;-67
2023/07/19 11:22:34;;;;;;;4.30;2.90;;;29.60;50.60;;;;;;4992339;28;21050;-66
2023/07/19 11:25:01;;;;;;;3.23;2.27;;;29.50;50.30;;;;;;4976973;28;20479;-67
2023/07/19 11:27:35;;;;;;;2.80;2.60;;;29.60;51.30;;;;;;4992129;28;20525;-66
2023/07/19 11:30:02;;;;;;;4.23;2.60;;;29.70;50.60;;;;;;4996534;28;20458;-67
2023/07/19 11:32:29;;;;;;;2.60;2.27;;;29.70;50.50;;;;;;5004204;28;20528;-66
2023/07/19 11:34:58;;;;;;;3.07;2.77;;;29.80;50.30;;;;;;4992620;28;20815;-66
2023/07/19 11:37:27;;;;;;;3.93;2.70;;;30.00;51.30;;;;;;4992149;28;20449;-66
2023/07/19 11:39:58;;;;;;;3.30;2.70;;;30.20;50.80;;;;;;4992334;28;20462;-66
2023/07/19 11:42:45;;;;;;;5.00;3.20;;;30.20;48.30;;;;;;4992236;28;20951;-66
2023/07/19 11:45:14;;;;;;;2.73;2.27;;;30.20;50.00;;;;;;4978079;28;20610;-67
2023/07/19 11:47:42;;;;;;;4.53;3.07;;;30.10;49.50;;;;;;4991721;28;20470;-65
2023/07/19 11:50:10;;;;;;;3.93;2.90;;;30.00;49.10;;;;;;4991753;28;20450;-66
2023/07/19 11:52:48;;;;;;;3.77;2.83;;;30.00;50.00;;;;;;4991889;28;20467;-66
2023/07/19 11:55:17;;;;;;;3.10;2.80;;;29.80;49.30;;;;;;4992114;28;20451;-66
2023/07/19 11:57:45;;;;;;;4.40;2.60;;;29.60;50.20;;;;;;4991784;28;20822;-66
2023/07/19 12:00:15;;;;;;;2.93;2.57;;;29.60;50.70;;;;;;4992125;28;20443;-66
2023/07/19 12:02:44;;;;;;;3.27;3.07;;;29.50;50.80;;;;;;4990802;28;20478;-66
2023/07/19 12:05:13;;;;;;;2.43;2.30;;;29.40;50.60;;;;;;4991554;28;20490;-67
2023/07/19 12:07:40;;;;;;;4.90;2.40;;;29.50;50.90;;;;;;4991557;28;20962;-66
2023/07/19 12:10:08;;;;;;;3.40;3.10;;;29.40;50.00;;;;;;4991906;28;20458;-66
2023/07/19 12:12:37;;;;;;;2.67;2.47;;;29.40;50.20;;;;;;4991461;28;20482;-66
2023/07/19 12:15:08;;;;;;;3.63;2.53;;;29.30;48.80;;;;;;4991440;28;20446;-66
2023/07/19 12:17:36;;;;;;;3.83;3.07;;;29.20;50.20;;;;;;4990833;28;20448;-66
2023/07/19 12:20:04;;;;;;;3.53;2.77;;;29.20;50.00;;;;;;4991177;28;20481;-66
2023/07/19 12:22:31;;;;;;;3.20;3.00;;;29.20;51.00;;;;;;4989157;28;20570;-65
2023/07/19 12:24:59;;;;;;;5.13;2.10;;;29.30;50.60;;;;;;4991194;28;20487;-67
2023/07/19 12:27:26;;;;;;;4.10;3.30;;;29.30;51.00;;;;;;4991178;28;20475;-67
2023/07/19 12:29:54;;;;;;;4.10;2.90;;;29.50;51.30;;;;;;4991280;28;21023;-66
2023/07/19 12:32:21;;;;;;;6.40;3.77;;;29.70;50.10;;;;;;4991602;28;20473;-66
2023/07/19 12:34:48;;;;;;;3.50;3.20;;;29.90;50.50;;;;;;4994700;28;20460;-67
2023/07/19 12:37:15;;;;;;;3.17;2.97;;;30.20;50.40;;;;;;4990495;28;20499;-67
2023/07/19 12:39:42;;;;;;;4.03;3.10;;;30.40;50.10;;;;;;4990602;28;20451;-67
2023/07/19 12:42:09;;;;;;;2.43;2.23;;;30.60;50.60;;;;;;4990300;28;20556;-67
2023/07/19 12:44:36;;;;;;;3.20;3.00;;;30.60;48.10;;;;;;4990461;28;20871;-66
2023/07/19 12:47:06;;;;;;;3.33;3.10;;;30.50;48.80;;;;;;4990816;28;20451;-67
2023/07/19 12:49:33;;;;;;;3.30;3.00;;;30.40;48.20;;;;;;4993784;28;20551;-66
2023/07/19 12:52:01;;;;;;;3.10;2.90;;;30.20;49.20;;;;;;4990432;28;20474;-65
2023/07/19 12:54:28;;;;;;;4.13;3.00;;;30.10;49.70;;;;;;4990900;28;21058;-67
2023/07/19 12:56:55;;;;;;;3.13;2.80;;;30.00;50.40;;;;;;4990382;28;20529;-66
2023/07/19 12:59:23;;;;;;;3.10;2.87;;;29.90;49.70;;;;;;4990828;28;20535;-66